Terminal Aerodrome Forecast
Issued by NWS Wakefield, VA

Home | Current Version | Previous Version | Text Only | Print | Product List | Glossary On
Versions: 1 2 3 4 5 6 7 8 9 10 11 12 13 14 15 16 17
000
FTUS41 KAKQ 020254 AAA
TAFORF
TAF AMD
KORF 020254Z 0203/0224 18010KT P6SM SCT100 BKN200
     FM020400 30007KT P6SM SCT025 BKN100
      TEMPO 0205/0208 VRB10G20KT 5SM SHRA BKN025 OVC050
     FM020800 22008KT P6SM SCT025 OVC080
     FM021700 02010KT P6SM BKN100 OVC200
     FM022100 05008KT P6SM BKN050 OVC100=

USA.gov is the U.S. government's official web portal to all federal, state and local government web resources and services.